sensor_id;sensor_type;location;lat;lon;timestamp;temperature;humidity
6654;DHT22;3363;50.942;7.034;2022-10-31T00:01:46;15.20;93.10
6654;DHT22;3363;50.942;7.034;2022-10-31T00:04:13;15.20;93.50
6654;DHT22;3363;50.942;7.034;2022-10-31T00:06:40;15.30;93.20
6654;DHT22;3363;50.942;7.034;2022-10-31T00:09:06;15.20;93.30
6654;DHT22;3363;50.942;7.034;2022-10-31T00:11:33;15.20;93.20
6654;DHT22;3363;50.942;7.034;2022-10-31T00:14:00;15.20;93.40
6654;DHT22;3363;50.942;7.034;2022-10-31T00:16:28;15.20;93.40
6654;DHT22;3363;50.942;7.034;2022-10-31T00:18:58;15.20;93.20
6654;DHT22;3363;50.942;7.034;2022-10-31T00:21:26;15.20;93.40
6654;DHT22;3363;50.942;7.034;2022-10-31T00:23:53;15.10;93.40
6654;DHT22;3363;50.942;7.034;2022-10-31T00:26:20;15.10;93.10
6654;DHT22;3363;50.942;7.034;2022-10-31T00:28:47;15.10;93.60
6654;DHT22;3363;50.942;7.034;2022-10-31T00:31:14;15.10;93.30
6654;DHT22;3363;50.942;7.034;2022-10-31T00:33:41;15.10;93.60
6654;DHT22;3363;50.942;7.034;2022-10-31T00:36:12;15.10;93.70
6654;DHT22;3363;50.942;7.034;2022-10-31T00:38:39;15.10;93.80
6654;DHT22;3363;50.942;7.034;2022-10-31T00:41:06;15.00;93.90
6654;DHT22;3363;50.942;7.034;2022-10-31T00:43:33;15.00;94.00
6654;DHT22;3363;50.942;7.034;2022-10-31T00:46:00;15.10;93.70
6654;DHT22;3363;50.942;7.034;2022-10-31T00:48:26;15.10;93.60
6654;DHT22;3363;50.942;7.034;2022-10-31T00:50:53;15.10;93.40
6654;DHT22;3363;50.942;7.034;2022-10-31T00:53:22;15.10;93.40
6654;DHT22;3363;50.942;7.034;2022-10-31T00:55:48;15.10;93.30
6654;DHT22;3363;50.942;7.034;2022-10-31T00:58:15;15.10;93.40
6654;DHT22;3363;50.942;7.034;2022-10-31T01:00:42;15.00;93.70
6654;DHT22;3363;50.942;7.034;2022-10-31T01:03:09;15.10;93.70
6654;DHT22;3363;50.942;7.034;2022-10-31T01:05:36;15.10;93.60
6654;DHT22;3363;50.942;7.034;2022-10-31T01:08:03;15.00;93.80
6654;DHT22;3363;50.942;7.034;2022-10-31T01:10:31;15.00;93.80
6654;DHT22;3363;50.942;7.034;2022-10-31T01:12:58;15.00;94.10
6654;DHT22;3363;50.942;7.034;2022-10-31T01:15:25;14.90;94.20
6654;DHT22;3363;50.942;7.034;2022-10-31T01:17:52;14.90;94.50
6654;DHT22;3363;50.942;7.034;2022-10-31T01:20:19;15.00;94.60
6654;DHT22;3363;50.942;7.034;2022-10-31T01:22:46;14.90;94.60
6654;DHT22;3363;50.942;7.034;2022-10-31T01:25:13;14.90;94.60
6654;DHT22;3363;50.942;7.034;2022-10-31T01:27:41;14.90;94.70
6654;DHT22;3363;50.942;7.034;2022-10-31T01:30:09;14.90;94.80
6654;DHT22;3363;50.942;7.034;2022-10-31T01:32:36;14.90;94.80
6654;DHT22;3363;50.942;7.034;2022-10-31T01:35:03;14.90;94.80
6654;DHT22;3363;50.942;7.034;2022-10-31T01:37:30;14.90;95.00
6654;DHT22;3363;50.942;7.034;2022-10-31T01:39:57;14.90;95.10
6654;DHT22;3363;50.942;7.034;2022-10-31T01:42:24;14.90;95.30
6654;DHT22;3363;50.942;7.034;2022-10-31T01:44:58;14.90;95.30
6654;DHT22;3363;50.942;7.034;2022-10-31T01:47:40;14.90;95.20
6654;DHT22;3363;50.942;7.034;2022-10-31T01:50:14;14.80;95.30
6654;DHT22;3363;50.942;7.034;2022-10-31T01:52:44;14.80;95.70
6654;DHT22;3363;50.942;7.034;2022-10-31T01:55:15;14.80;95.50
6654;DHT22;3363;50.942;7.034;2022-10-31T01:57:45;14.80;95.50
6654;DHT22;3363;50.942;7.034;2022-10-31T02:00:15;14.80;95.30
6654;DHT22;3363;50.942;7.034;2022-10-31T02:02:42;14.80;95.30
6654;DHT22;3363;50.942;7.034;2022-10-31T02:05:13;14.80;95.30
6654;DHT22;3363;50.942;7.034;2022-10-31T02:07:45;14.80;95.40
6654;DHT22;3363;50.942;7.034;2022-10-31T02:10:15;14.80;95.40
6654;DHT22;3363;50.942;7.034;2022-10-31T02:12:43;14.80;95.40
6654;DHT22;3363;50.942;7.034;2022-10-31T02:15:10;14.80;95.60
6654;DHT22;3363;50.942;7.034;2022-10-31T02:17:39;14.70;95.40
6654;DHT22;3363;50.942;7.034;2022-10-31T02:20:14;14.80;95.30
6654;DHT22;3363;50.942;7.034;2022-10-31T02:22:54;14.70;95.30
6654;DHT22;3363;50.942;7.034;2022-10-31T02:25:44;14.70;95.40
6654;DHT22;3363;50.942;7.034;2022-10-31T02:28:33;14.70;95.30
6654;DHT22;3363;50.942;7.034;2022-10-31T02:31:16;14.70;95.20
6654;DHT22;3363;50.942;7.034;2022-10-31T02:33:50;14.60;95.20
6654;DHT22;3363;50.942;7.034;2022-10-31T02:36:22;14.70;95.30
6654;DHT22;3363;50.942;7.034;2022-10-31T02:38:56;14.70;95.20
6654;DHT22;3363;50.942;7.034;2022-10-31T02:41:32;14.60;95.10
6654;DHT22;3363;50.942;7.034;2022-10-31T02:44:06;14.70;95.10
6654;DHT22;3363;50.942;7.034;2022-10-31T02:46:39;14.60;95.20
6654;DHT22;3363;50.942;7.034;2022-10-31T02:49:16;14.60;95.20
6654;DHT22;3363;50.942;7.034;2022-10-31T02:51:45;14.60;95.20
6654;DHT22;3363;50.942;7.034;2022-10-31T02:54:21;14.60;95.50
6654;DHT22;3363;50.942;7.034;2022-10-31T02:56:49;14.60;95.20
6654;DHT22;3363;50.942;7.034;2022-10-31T02:59:17;14.60;95.00
6654;DHT22;3363;50.942;7.034;2022-10-31T03:01:59;14.60;94.90
6654;DHT22;3363;50.942;7.034;2022-10-31T03:04:43;14.60;95.00
6654;DHT22;3363;50.942;7.034;2022-10-31T03:07:20;14.60;95.20
6654;DHT22;3363;50.942;7.034;2022-10-31T03:09:55;14.60;95.40
6654;DHT22;3363;50.942;7.034;2022-10-31T03:12:27;14.60;95.70
6654;DHT22;3363;50.942;7.034;2022-10-31T03:15:02;14.60;95.80
6654;DHT22;3363;50.942;7.034;2022-10-31T03:17:36;14.60;96.00
6654;DHT22;3363;50.942;7.034;2022-10-31T03:20:03;14.60;96.10
6654;DHT22;3363;50.942;7.034;2022-10-31T03:22:31;14.60;96.20
6654;DHT22;3363;50.942;7.034;2022-10-31T03:25:00;14.50;96.30
6654;DHT22;3363;50.942;7.034;2022-10-31T03:27:28;14.60;96.70
6654;DHT22;3363;50.942;7.034;2022-10-31T03:29:57;14.60;96.60
6654;DHT22;3363;50.942;7.034;2022-10-31T03:32:25;14.50;96.70
6654;DHT22;3363;50.942;7.034;2022-10-31T03:34:56;14.50;96.80
6654;DHT22;3363;50.942;7.034;2022-10-31T03:37:23;14.50;97.00
6654;DHT22;3363;50.942;7.034;2022-10-31T03:39:51;14.50;97.30
6654;DHT22;3363;50.942;7.034;2022-10-31T03:42:20;14.50;97.60
6654;DHT22;3363;50.942;7.034;2022-10-31T03:44:49;14.50;97.60
6654;DHT22;3363;50.942;7.034;2022-10-31T03:47:16;14.50;97.80
6654;DHT22;3363;50.942;7.034;2022-10-31T03:49:43;14.50;97.60
6654;DHT22;3363;50.942;7.034;2022-10-31T03:52:12;14.50;97.50
6654;DHT22;3363;50.942;7.034;2022-10-31T03:54:40;14.50;97.60
6654;DHT22;3363;50.942;7.034;2022-10-31T03:57:10;14.50;97.80
6654;DHT22;3363;50.942;7.034;2022-10-31T03:59:39;14.50;98.10
6654;DHT22;3363;50.942;7.034;2022-10-31T04:02:07;14.40;98.30
6654;DHT22;3363;50.942;7.034;2022-10-31T04:04:37;14.40;98.20
6654;DHT22;3363;50.942;7.034;2022-10-31T04:07:04;14.40;98.20
6654;DHT22;3363;50.942;7.034;2022-10-31T04:09:33;14.40;98.30
6654;DHT22;3363;50.942;7.034;2022-10-31T04:12:01;14.40;98.30
6654;DHT22;3363;50.942;7.034;2022-10-31T04:14:31;14.40;98.50
6654;DHT22;3363;50.942;7.034;2022-10-31T04:16:58;14.40;98.70
6654;DHT22;3363;50.942;7.034;2022-10-31T04:19:26;14.40;98.60
6654;DHT22;3363;50.942;7.034;2022-10-31T04:21:53;14.40;98.30
6654;DHT22;3363;50.942;7.034;2022-10-31T04:24:20;14.40;98.30
6654;DHT22;3363;50.942;7.034;2022-10-31T04:26:48;14.30;98.40
6654;DHT22;3363;50.942;7.034;2022-10-31T04:29:14;14.30;98.50
6654;DHT22;3363;50.942;7.034;2022-10-31T04:31:41;14.30;98.70
6654;DHT22;3363;50.942;7.034;2022-10-31T04:34:08;14.30;98.30
6654;DHT22;3363;50.942;7.034;2022-10-31T04:36:34;14.30;98.40
6654;DHT22;3363;50.942;7.034;2022-10-31T04:39:01;14.30;98.40
6654;DHT22;3363;50.942;7.034;2022-10-31T04:41:28;14.30;98.50
6654;DHT22;3363;50.942;7.034;2022-10-31T04:43:56;14.30;98.30
6654;DHT22;3363;50.942;7.034;2022-10-31T04:46:22;14.30;98.10
6654;DHT22;3363;50.942;7.034;2022-10-31T04:48:49;14.30;98.20
6654;DHT22;3363;50.942;7.034;2022-10-31T04:51:15;14.30;98.30
6654;DHT22;3363;50.942;7.034;2022-10-31T04:53:42;14.20;98.30
6654;DHT22;3363;50.942;7.034;2022-10-31T04:56:09;14.20;98.20
6654;DHT22;3363;50.942;7.034;2022-10-31T04:58:35;14.20;98.20
6654;DHT22;3363;50.942;7.034;2022-10-31T05:01:03;14.20;98.00
6654;DHT22;3363;50.942;7.034;2022-10-31T05:03:30;14.20;97.80
6654;DHT22;3363;50.942;7.034;2022-10-31T05:05:57;14.20;97.60
6654;DHT22;3363;50.942;7.034;2022-10-31T05:08:23;14.20;97.60
6654;DHT22;3363;50.942;7.034;2022-10-31T05:10:50;14.20;97.50
6654;DHT22;3363;50.942;7.034;2022-10-31T05:13:17;14.20;97.60
6654;DHT22;3363;50.942;7.034;2022-10-31T05:15:43;14.10;97.60
6654;DHT22;3363;50.942;7.034;2022-10-31T05:18:11;14.10;97.70
6654;DHT22;3363;50.942;7.034;2022-10-31T05:20:38;14.10;97.70
6654;DHT22;3363;50.942;7.034;2022-10-31T05:23:05;14.10;97.60
6654;DHT22;3363;50.942;7.034;2022-10-31T05:25:31;14.10;97.70
6654;DHT22;3363;50.942;7.034;2022-10-31T05:27:58;14.10;97.60
6654;DHT22;3363;50.942;7.034;2022-10-31T05:30:25;14.10;97.30
6654;DHT22;3363;50.942;7.034;2022-10-31T05:32:53;14.10;97.40
6654;DHT22;3363;50.942;7.034;2022-10-31T05:35:21;14.10;97.20
6654;DHT22;3363;50.942;7.034;2022-10-31T05:37:48;14.10;97.30
6654;DHT22;3363;50.942;7.034;2022-10-31T05:40:16;14.10;97.30
6654;DHT22;3363;50.942;7.034;2022-10-31T05:42:43;14.00;97.30
6654;DHT22;3363;50.942;7.034;2022-10-31T05:45:12;14.00;97.20
6654;DHT22;3363;50.942;7.034;2022-10-31T05:47:39;14.00;97.20
6654;DHT22;3363;50.942;7.034;2022-10-31T05:50:06;14.00;97.00
6654;DHT22;3363;50.942;7.034;2022-10-31T05:52:35;14.00;96.90
6654;DHT22;3363;50.942;7.034;2022-10-31T05:55:02;14.00;97.00
6654;DHT22;3363;50.942;7.034;2022-10-31T05:57:28;14.00;97.00
6654;DHT22;3363;50.942;7.034;2022-10-31T05:59:55;13.90;97.50
6654;DHT22;3363;50.942;7.034;2022-10-31T06:02:22;13.90;97.50
6654;DHT22;3363;50.942;7.034;2022-10-31T06:04:49;14.00;97.40
6654;DHT22;3363;50.942;7.034;2022-10-31T06:07:15;14.00;97.30
6654;DHT22;3363;50.942;7.034;2022-10-31T06:09:43;13.90;97.30
6654;DHT22;3363;50.942;7.034;2022-10-31T06:12:10;14.00;97.40
6654;DHT22;3363;50.942;7.034;2022-10-31T06:14:36;13.90;97.20
6654;DHT22;3363;50.942;7.034;2022-10-31T06:17:03;13.90;97.20
6654;DHT22;3363;50.942;7.034;2022-10-31T06:19:30;14.00;97.20
6654;DHT22;3363;50.942;7.034;2022-10-31T06:21:56;13.90;97.10
6654;DHT22;3363;50.942;7.034;2022-10-31T06:24:23;13.90;97.20
6654;DHT22;3363;50.942;7.034;2022-10-31T06:26:51;13.90;97.30
6654;DHT22;3363;50.942;7.034;2022-10-31T06:29:17;13.90;97.30
6654;DHT22;3363;50.942;7.034;2022-10-31T06:31:44;13.90;97.20
6654;DHT22;3363;50.942;7.034;2022-10-31T06:34:11;13.90;97.20
6654;DHT22;3363;50.942;7.034;2022-10-31T06:36:37;13.90;97.10
6654;DHT22;3363;50.942;7.034;2022-10-31T06:39:04;13.90;97.00
6654;DHT22;3363;50.942;7.034;2022-10-31T06:41:31;13.90;97.00
6654;DHT22;3363;50.942;7.034;2022-10-31T06:43:59;13.90;97.10
6654;DHT22;3363;50.942;7.034;2022-10-31T06:46:25;13.90;97.20
6654;DHT22;3363;50.942;7.034;2022-10-31T06:48:52;13.80;97.10
6654;DHT22;3363;50.942;7.034;2022-10-31T06:51:18;13.80;96.90
6654;DHT22;3363;50.942;7.034;2022-10-31T06:53:45;13.80;97.50
6654;DHT22;3363;50.942;7.034;2022-10-31T06:56:12;13.80;97.70
6654;DHT22;3363;50.942;7.034;2022-10-31T06:58:38;13.80;97.50
6654;DHT22;3363;50.942;7.034;2022-10-31T07:01:06;13.80;97.50
6654;DHT22;3363;50.942;7.034;2022-10-31T07:03:33;13.80;97.40
6654;DHT22;3363;50.942;7.034;2022-10-31T07:06:00;13.80;97.50
6654;DHT22;3363;50.942;7.034;2022-10-31T07:08:26;13.80;97.60
6654;DHT22;3363;50.942;7.034;2022-10-31T07:10:53;13.80;97.40
6654;DHT22;3363;50.942;7.034;2022-10-31T07:13:20;13.80;97.50
6654;DHT22;3363;50.942;7.034;2022-10-31T07:15:50;13.80;97.60
6654;DHT22;3363;50.942;7.034;2022-10-31T07:18:18;13.80;97.80
6654;DHT22;3363;50.942;7.034;2022-10-31T07:20:45;13.90;97.90
6654;DHT22;3363;50.942;7.034;2022-10-31T07:23:12;13.90;97.80
6654;DHT22;3363;50.942;7.034;2022-10-31T07:25:38;13.80;97.80
6654;DHT22;3363;50.942;7.034;2022-10-31T07:28:05;13.80;97.90
6654;DHT22;3363;50.942;7.034;2022-10-31T07:30:32;13.80;98.20
6654;DHT22;3363;50.942;7.034;2022-10-31T07:32:58;13.90;98.30
6654;DHT22;3363;50.942;7.034;2022-10-31T07:35:27;13.90;98.20
6654;DHT22;3363;50.942;7.034;2022-10-31T07:37:54;13.90;98.20
6654;DHT22;3363;50.942;7.034;2022-10-31T07:40:21;13.90;98.20
6654;DHT22;3363;50.942;7.034;2022-10-31T07:42:48;13.90;98.30
6654;DHT22;3363;50.942;7.034;2022-10-31T07:45:16;13.90;98.40
6654;DHT22;3363;50.942;7.034;2022-10-31T07:47:43;13.90;98.40
6654;DHT22;3363;50.942;7.034;2022-10-31T07:50:12;13.90;98.60
6654;DHT22;3363;50.942;7.034;2022-10-31T07:52:41;13.90;99.20
6654;DHT22;3363;50.942;7.034;2022-10-31T07:55:08;13.90;99.40
6654;DHT22;3363;50.942;7.034;2022-10-31T07:57:34;13.90;99.70
6654;DHT22;3363;50.942;7.034;2022-10-31T08:00:02;13.90;99.60
6654;DHT22;3363;50.942;7.034;2022-10-31T08:02:29;13.90;99.50
6654;DHT22;3363;50.942;7.034;2022-10-31T08:04:55;13.90;99.40
6654;DHT22;3363;50.942;7.034;2022-10-31T08:07:22;13.90;99.40
6654;DHT22;3363;50.942;7.034;2022-10-31T08:09:50;13.80;99.90
6654;DHT22;3363;50.942;7.034;2022-10-31T08:12:17;13.80;99.90
6654;DHT22;3363;50.942;7.034;2022-10-31T08:14:43;13.80;99.90
6654;DHT22;3363;50.942;7.034;2022-10-31T08:17:10;13.90;99.90
6654;DHT22;3363;50.942;7.034;2022-10-31T08:19:37;13.90;99.90
6654;DHT22;3363;50.942;7.034;2022-10-31T08:22:03;13.90;99.90
6654;DHT22;3363;50.942;7.034;2022-10-31T08:24:30;13.90;99.90
6654;DHT22;3363;50.942;7.034;2022-10-31T08:26:58;13.80;99.90
6654;DHT22;3363;50.942;7.034;2022-10-31T08:29:25;13.80;99.90
6654;DHT22;3363;50.942;7.034;2022-10-31T08:31:51;13.80;99.90
6654;DHT22;3363;50.942;7.034;2022-10-31T08:34:18;13.90;99.90
6654;DHT22;3363;50.942;7.034;2022-10-31T08:36:44;13.90;99.90
6654;DHT22;3363;50.942;7.034;2022-10-31T08:39:11;13.90;99.90
6654;DHT22;3363;50.942;7.034;2022-10-31T08:41:38;13.90;99.90
6654;DHT22;3363;50.942;7.034;2022-10-31T08:44:06;14.00;99.90
6654;DHT22;3363;50.942;7.034;2022-10-31T08:46:32;14.00;99.90
6654;DHT22;3363;50.942;7.034;2022-10-31T08:48:59;13.90;99.90
6654;DHT22;3363;50.942;7.034;2022-10-31T08:51:26;13.90;99.90
6654;DHT22;3363;50.942;7.034;2022-10-31T08:53:52;13.90;99.90
6654;DHT22;3363;50.942;7.034;2022-10-31T08:56:19;13.90;99.90
6654;DHT22;3363;50.942;7.034;2022-10-31T08:58:47;13.90;99.90
6654;DHT22;3363;50.942;7.034;2022-10-31T09:01:15;13.90;99.90
6654;DHT22;3363;50.942;7.034;2022-10-31T09:03:42;14.00;99.90
6654;DHT22;3363;50.942;7.034;2022-10-31T09:06:08;14.00;99.90
6654;DHT22;3363;50.942;7.034;2022-10-31T09:08:35;14.00;99.90
6654;DHT22;3363;50.942;7.034;2022-10-31T09:11:02;14.00;99.90
6654;DHT22;3363;50.942;7.034;2022-10-31T09:13:29;14.00;99.90
6654;DHT22;3363;50.942;7.034;2022-10-31T09:15:56;14.00;99.90
6654;DHT22;3363;50.942;7.034;2022-10-31T09:18:25;14.00;99.90
6654;DHT22;3363;50.942;7.034;2022-10-31T09:20:53;14.00;99.90
6654;DHT22;3363;50.942;7.034;2022-10-31T09:23:20;14.00;99.90
6654;DHT22;3363;50.942;7.034;2022-10-31T09:25:47;14.00;99.90
6654;DHT22;3363;50.942;7.034;2022-10-31T09:28:15;14.00;99.90
6654;DHT22;3363;50.942;7.034;2022-10-31T09:30:42;14.00;99.90
6654;DHT22;3363;50.942;7.034;2022-10-31T09:33:09;14.10;99.90
6654;DHT22;3363;50.942;7.034;2022-10-31T09:35:37;14.10;99.90
6654;DHT22;3363;50.942;7.034;2022-10-31T09:38:04;14.10;99.90
6654;DHT22;3363;50.942;7.034;2022-10-31T09:40:32;14.10;99.90
6654;DHT22;3363;50.942;7.034;2022-10-31T09:43:03;14.10;99.90
6654;DHT22;3363;50.942;7.034;2022-10-31T09:45:31;14.20;99.90
6654;DHT22;3363;50.942;7.034;2022-10-31T09:48:03;14.30;99.90
6654;DHT22;3363;50.942;7.034;2022-10-31T09:50:35;14.40;99.90
6654;DHT22;3363;50.942;7.034;2022-10-31T09:53:04;14.50;99.90
6654;DHT22;3363;50.942;7.034;2022-10-31T09:55:35;14.60;99.90
6654;DHT22;3363;50.942;7.034;2022-10-31T09:58:02;14.90;99.90
6654;DHT22;3363;50.942;7.034;2022-10-31T10:00:29;15.10;99.40
6654;DHT22;3363;50.942;7.034;2022-10-31T10:02:57;15.20;97.70
6654;DHT22;3363;50.942;7.034;2022-10-31T10:05:27;15.50;95.10
6654;DHT22;3363;50.942;7.034;2022-10-31T10:07:59;15.50;94.70
6654;DHT22;3363;50.942;7.034;2022-10-31T10:10:32;15.60;94.90
6654;DHT22;3363;50.942;7.034;2022-10-31T10:13:11;15.50;96.50
6654;DHT22;3363;50.942;7.034;2022-10-31T10:15:51;15.50;98.50
6654;DHT22;3363;50.942;7.034;2022-10-31T10:18:23;15.40;99.60
6654;DHT22;3363;50.942;7.034;2022-10-31T10:20:58;15.50;99.00
6654;DHT22;3363;50.942;7.034;2022-10-31T10:23:35;15.60;99.30
6654;DHT22;3363;50.942;7.034;2022-10-31T10:26:06;15.70;98.60
6654;DHT22;3363;50.942;7.034;2022-10-31T10:28:36;15.90;97.60
6654;DHT22;3363;50.942;7.034;2022-10-31T10:31:05;15.90;95.40
6654;DHT22;3363;50.942;7.034;2022-10-31T10:33:33;16.00;92.40
6654;DHT22;3363;50.942;7.034;2022-10-31T10:36:03;16.00;94.10
6654;DHT22;3363;50.942;7.034;2022-10-31T10:38:33;15.90;92.60
6654;DHT22;3363;50.942;7.034;2022-10-31T10:41:02;15.90;93.80
6654;DHT22;3363;50.942;7.034;2022-10-31T10:43:32;15.90;93.30
6654;DHT22;3363;50.942;7.034;2022-10-31T10:46:01;15.80;92.50
6654;DHT22;3363;50.942;7.034;2022-10-31T10:48:50;15.80;92.40
6654;DHT22;3363;50.942;7.034;2022-10-31T10:51:21;15.90;93.60
6654;DHT22;3363;50.942;7.034;2022-10-31T10:53:51;15.90;94.10
6654;DHT22;3363;50.942;7.034;2022-10-31T10:56:32;15.90;92.60
6654;DHT22;3363;50.942;7.034;2022-10-31T10:59:04;15.80;92.80
6654;DHT22;3363;50.942;7.034;2022-10-31T11:01:31;15.80;92.90
6654;DHT22;3363;50.942;7.034;2022-10-31T11:03:57;15.70;92.40
6654;DHT22;3363;50.942;7.034;2022-10-31T11:06:24;15.90;96.30
6654;DHT22;3363;50.942;7.034;2022-10-31T11:08:51;15.90;97.90
6654;DHT22;3363;50.942;7.034;2022-10-31T11:11:25;15.80;95.70
6654;DHT22;3363;50.942;7.034;2022-10-31T11:13:57;15.80;94.40
6654;DHT22;3363;50.942;7.034;2022-10-31T11:16:30;15.80;93.40
6654;DHT22;3363;50.942;7.034;2022-10-31T11:19:07;15.80;93.40
6654;DHT22;3363;50.942;7.034;2022-10-31T11:21:35;15.70;93.20
6654;DHT22;3363;50.942;7.034;2022-10-31T11:24:02;15.80;93.10
6654;DHT22;3363;50.942;7.034;2022-10-31T11:26:28;15.80;93.20
6654;DHT22;3363;50.942;7.034;2022-10-31T11:28:55;15.80;93.10
6654;DHT22;3363;50.942;7.034;2022-10-31T11:31:22;15.80;95.90
6654;DHT22;3363;50.942;7.034;2022-10-31T11:33:52;15.90;97.30
6654;DHT22;3363;50.942;7.034;2022-10-31T11:36:21;15.80;94.60
6654;DHT22;3363;50.942;7.034;2022-10-31T11:38:48;15.80;94.40
6654;DHT22;3363;50.942;7.034;2022-10-31T11:41:16;15.80;94.50
6654;DHT22;3363;50.942;7.034;2022-10-31T11:43:45;15.90;98.80
6654;DHT22;3363;50.942;7.034;2022-10-31T11:46:15;16.10;98.30
6654;DHT22;3363;50.942;7.034;2022-10-31T11:48:46;16.00;93.80
6654;DHT22;3363;50.942;7.034;2022-10-31T11:51:19;16.00;92.80
6654;DHT22;3363;50.942;7.034;2022-10-31T11:53:49;16.10;95.80
6654;DHT22;3363;50.942;7.034;2022-10-31T11:56:17;16.30;95.40
6654;DHT22;3363;50.942;7.034;2022-10-31T11:58:54;16.30;93.70
6654;DHT22;3363;50.942;7.034;2022-10-31T12:01:23;16.20;93.80
6654;DHT22;3363;50.942;7.034;2022-10-31T12:03:53;16.50;93.10
6654;DHT22;3363;50.942;7.034;2022-10-31T12:06:22;16.60;91.90
6654;DHT22;3363;50.942;7.034;2022-10-31T12:08:49;16.40;92.00
6654;DHT22;3363;50.942;7.034;2022-10-31T12:11:20;16.50;94.20
6654;DHT22;3363;50.942;7.034;2022-10-31T12:13:52;16.40;92.60
6654;DHT22;3363;50.942;7.034;2022-10-31T12:16:25;16.40;92.60
6654;DHT22;3363;50.942;7.034;2022-10-31T12:18:56;16.40;92.10
6654;DHT22;3363;50.942;7.034;2022-10-31T12:21:30;16.40;96.60
6654;DHT22;3363;50.942;7.034;2022-10-31T12:24:06;16.30;94.00
6654;DHT22;3363;50.942;7.034;2022-10-31T12:26:35;16.50;93.10
6654;DHT22;3363;50.942;7.034;2022-10-31T12:29:18;16.40;92.40
6654;DHT22;3363;50.942;7.034;2022-10-31T12:31:50;16.30;92.50
6654;DHT22;3363;50.942;7.034;2022-10-31T12:37:11;16.50;94.30
6654;DHT22;3363;50.942;7.034;2022-10-31T12:39:42;16.40;90.90
6654;DHT22;3363;50.942;7.034;2022-10-31T12:42:13;16.40;97.30
6654;DHT22;3363;50.942;7.034;2022-10-31T12:47:30;16.60;92.50
6654;DHT22;3363;50.942;7.034;2022-10-31T12:50:00;16.60;91.70
6654;DHT22;3363;50.942;7.034;2022-10-31T12:52:34;16.60;94.90
6654;DHT22;3363;50.942;7.034;2022-10-31T12:55:08;16.70;95.50
6654;DHT22;3363;50.942;7.034;2022-10-31T12:57:36;16.70;91.50
6654;DHT22;3363;50.942;7.034;2022-10-31T13:00:10;16.80;93.40
6654;DHT22;3363;50.942;7.034;2022-10-31T13:02:38;16.80;92.50
6654;DHT22;3363;50.942;7.034;2022-10-31T13:05:11;16.90;93.10
6654;DHT22;3363;50.942;7.034;2022-10-31T13:07:42;16.90;93.10
6654;DHT22;3363;50.942;7.034;2022-10-31T13:10:14;16.80;93.30
6654;DHT22;3363;50.942;7.034;2022-10-31T13:12:41;16.70;94.30
6654;DHT22;3363;50.942;7.034;2022-10-31T13:15:12;16.60;91.80
6654;DHT22;3363;50.942;7.034;2022-10-31T13:17:42;16.70;91.50
6654;DHT22;3363;50.942;7.034;2022-10-31T13:20:14;16.60;91.40
6654;DHT22;3363;50.942;7.034;2022-10-31T13:22:44;16.60;93.60
6654;DHT22;3363;50.942;7.034;2022-10-31T13:25:13;16.70;92.40
6654;DHT22;3363;50.942;7.034;2022-10-31T13:27:42;16.90;88.20
6654;DHT22;3363;50.942;7.034;2022-10-31T13:30:12;16.80;90.10
6654;DHT22;3363;50.942;7.034;2022-10-31T13:32:41;16.90;92.00
6654;DHT22;3363;50.942;7.034;2022-10-31T13:35:10;16.90;91.10
6654;DHT22;3363;50.942;7.034;2022-10-31T13:37:40;16.80;91.30
6654;DHT22;3363;50.942;7.034;2022-10-31T13:40:12;16.80;90.10
6654;DHT22;3363;50.942;7.034;2022-10-31T13:42:48;16.90;90.20
6654;DHT22;3363;50.942;7.034;2022-10-31T13:45:17;16.80;88.40
6654;DHT22;3363;50.942;7.034;2022-10-31T13:47:54;16.80;89.50
6654;DHT22;3363;50.942;7.034;2022-10-31T13:50:22;16.70;90.60
6654;DHT22;3363;50.942;7.034;2022-10-31T13:52:49;17.00;90.60
6654;DHT22;3363;50.942;7.034;2022-10-31T13:58:21;16.70;88.10
6654;DHT22;3363;50.942;7.034;2022-10-31T14:00:57;16.80;87.90
6654;DHT22;3363;50.942;7.034;2022-10-31T14:03:24;16.80;88.80
6654;DHT22;3363;50.942;7.034;2022-10-31T14:05:53;16.70;90.50
6654;DHT22;3363;50.942;7.034;2022-10-31T14:08:22;16.80;91.90
6654;DHT22;3363;50.942;7.034;2022-10-31T14:10:50;16.60;90.10
6654;DHT22;3363;50.942;7.034;2022-10-31T14:13:18;16.70;92.00
6654;DHT22;3363;50.942;7.034;2022-10-31T14:15:53;17.00;92.00
6654;DHT22;3363;50.942;7.034;2022-10-31T14:18:21;17.00;91.40
6654;DHT22;3363;50.942;7.034;2022-10-31T14:20:49;17.00;91.20
6654;DHT22;3363;50.942;7.034;2022-10-31T14:23:31;16.90;91.90
6654;DHT22;3363;50.942;7.034;2022-10-31T14:26:06;16.90;90.20
6654;DHT22;3363;50.942;7.034;2022-10-31T14:28:33;16.80;91.50
6654;DHT22;3363;50.942;7.034;2022-10-31T14:31:01;16.90;92.60
6654;DHT22;3363;50.942;7.034;2022-10-31T14:33:28;16.80;90.80
6654;DHT22;3363;50.942;7.034;2022-10-31T14:35:56;16.80;91.20
6654;DHT22;3363;50.942;7.034;2022-10-31T14:38:28;16.80;90.70
6654;DHT22;3363;50.942;7.034;2022-10-31T14:41:07;16.80;89.70
6654;DHT22;3363;50.942;7.034;2022-10-31T14:43:44;16.80;88.20
6654;DHT22;3363;50.942;7.034;2022-10-31T14:46:17;16.70;87.20
6654;DHT22;3363;50.942;7.034;2022-10-31T14:48:51;16.80;86.30
6654;DHT22;3363;50.942;7.034;2022-10-31T14:51:20;17.10;86.90
6654;DHT22;3363;50.942;7.034;2022-10-31T14:53:48;16.90;84.00
6654;DHT22;3363;50.942;7.034;2022-10-31T14:56:17;16.90;83.90
6654;DHT22;3363;50.942;7.034;2022-10-31T14:58:46;16.90;87.60
6654;DHT22;3363;50.942;7.034;2022-10-31T15:01:21;17.10;84.00
6654;DHT22;3363;50.942;7.034;2022-10-31T15:03:48;17.10;80.50
6654;DHT22;3363;50.942;7.034;2022-10-31T15:06:16;16.90;83.40
6654;DHT22;3363;50.942;7.034;2022-10-31T15:08:45;16.90;83.50
6654;DHT22;3363;50.942;7.034;2022-10-31T15:11:12;16.90;83.90
6654;DHT22;3363;50.942;7.034;2022-10-31T15:13:43;16.80;82.80
6654;DHT22;3363;50.942;7.034;2022-10-31T15:16:10;16.70;83.40
6654;DHT22;3363;50.942;7.034;2022-10-31T15:18:38;16.80;83.30
6654;DHT22;3363;50.942;7.034;2022-10-31T15:21:11;16.80;81.80
6654;DHT22;3363;50.942;7.034;2022-10-31T15:23:40;16.90;79.30
6654;DHT22;3363;50.942;7.034;2022-10-31T15:26:11;16.90;79.70
6654;DHT22;3363;50.942;7.034;2022-10-31T15:28:41;16.90;78.30
6654;DHT22;3363;50.942;7.034;2022-10-31T15:31:12;16.90;79.20
6654;DHT22;3363;50.942;7.034;2022-10-31T15:33:42;16.80;80.40
6654;DHT22;3363;50.942;7.034;2022-10-31T15:36:17;16.70;79.40
6654;DHT22;3363;50.942;7.034;2022-10-31T15:38:44;16.70;80.00
6654;DHT22;3363;50.942;7.034;2022-10-31T15:41:18;16.70;80.00
6654;DHT22;3363;50.942;7.034;2022-10-31T15:43:47;16.70;79.60
6654;DHT22;3363;50.942;7.034;2022-10-31T15:46:14;16.60;79.60
6654;DHT22;3363;50.942;7.034;2022-10-31T15:48:44;16.60;80.50
6654;DHT22;3363;50.942;7.034;2022-10-31T15:51:12;16.60;78.50
6654;DHT22;3363;50.942;7.034;2022-10-31T15:53:41;16.50;79.80
6654;DHT22;3363;50.942;7.034;2022-10-31T15:56:10;16.50;80.50
6654;DHT22;3363;50.942;7.034;2022-10-31T15:58:39;16.40;81.00
6654;DHT22;3363;50.942;7.034;2022-10-31T16:01:19;16.60;78.50
6654;DHT22;3363;50.942;7.034;2022-10-31T16:03:56;16.50;79.70
6654;DHT22;3363;50.942;7.034;2022-10-31T16:06:24;16.50;77.90
6654;DHT22;3363;50.942;7.034;2022-10-31T16:08:50;16.40;77.90
6654;DHT22;3363;50.942;7.034;2022-10-31T16:11:20;16.40;79.30
6654;DHT22;3363;50.942;7.034;2022-10-31T16:13:52;16.30;79.60
6654;DHT22;3363;50.942;7.034;2022-10-31T16:16:19;16.30;79.90
6654;DHT22;3363;50.942;7.034;2022-10-31T16:18:47;16.30;79.10
6654;DHT22;3363;50.942;7.034;2022-10-31T16:21:15;16.20;80.70
6654;DHT22;3363;50.942;7.034;2022-10-31T16:23:50;16.20;79.70